sensor_id;sensor_type;location;lat;lon;timestamp;pressure;altitude;pressure_sealevel;temperature;humidity
50652;BME280;66928;52.086;5.240;2023-05-03T05:23:20;102884.99999999999;;;6.12;69.58
50652;BME280;66928;52.086;5.240;2023-05-03T05:26:32;102886.99999999999;;;6.21;69.36
50652;BME280;66928;52.086;5.240;2023-05-03T05:28:09;102892.0;;;6.24;69.19
50652;BME280;66928;52.086;5.240;2023-05-03T05:29:44;102894.0;;;6.29;69.14
50652;BME280;66928;52.086;5.240;2023-05-03T05:31:22;102886.99999999999;;;6.24;68.98
50652;BME280;66928;52.086;5.240;2023-05-03T05:34:34;102890.00000000001;;;6.29;69.12
50652;BME280;66928;52.086;5.240;2023-05-03T05:36:10;102889.00000000001;;;6.28;69.16
50652;BME280;66928;52.086;5.240;2023-05-03T05:37:46;102891.00000000001;;;6.3;69.22
50652;BME280;66928;52.086;5.240;2023-05-03T05:40:59;102883.99999999999;;;6.32;69.24
50652;BME280;66928;52.086;5.240;2023-05-03T05:42:35;102890.00000000001;;;6.36;69.05
50652;BME280;66928;52.086;5.240;2023-05-03T05:44:11;102892.0;;;6.52;68.7
50652;BME280;66928;52.086;5.240;2023-05-03T05:47:23;102890.00000000001;;;6.56;67.91
50652;BME280;66928;52.086;5.240;2023-05-03T05:48:59;102891.00000000001;;;6.53;68.2
50652;BME280;66928;52.086;5.240;2023-05-03T05:50:35;102891.00000000001;;;6.69;67.73
50652;BME280;66928;52.086;5.240;2023-05-03T05:52:12;102890.00000000001;;;6.82;67.41
50652;BME280;66928;52.086;5.240;2023-05-03T05:55:24;102890.00000000001;;;6.83;67.16
50652;BME280;66928;52.086;5.240;2023-05-03T05:56:59;102894.0;;;6.97;66.61
50652;BME280;66928;52.086;5.240;2023-05-03T05:58:36;102893.0;;;6.97;66.61
50652;BME280;66928;52.086;5.240;2023-05-03T06:01:49;102892.0;;;7.07;66.33
50652;BME280;66928;52.086;5.240;2023-05-03T06:03:25;102892.0;;;7.12;66.05
50652;BME280;66928;52.086;5.240;2023-05-03T06:05:01;102895.0;;;6.98;66.47
50652;BME280;66928;52.086;5.240;2023-05-03T06:08:13;102895.0;;;7.0;66.41
50652;BME280;66928;52.086;5.240;2023-05-03T06:09:49;102900.0;;;7.22;65.91
50652;BME280;66928;52.086;5.240;2023-05-03T06:11:26;102895.0;;;7.21;65.87
50652;BME280;66928;52.086;5.240;2023-05-03T06:14:38;102893.0;;;7.47;65.19
50652;BME280;66928;52.086;5.240;2023-05-03T06:16:14;102892.0;;;7.47;64.67
50652;BME280;66928;52.086;5.240;2023-05-03T06:17:50;102892.0;;;7.49;64.86
50652;BME280;66928;52.086;5.240;2023-05-03T06:19:26;102891.00000000001;;;7.51;64.5
50652;BME280;66928;52.086;5.240;2023-05-03T06:22:38;102890.00000000001;;;7.51;64.02
50652;BME280;66928;52.086;5.240;2023-05-03T06:24:15;102883.0;;;7.41;64.2
50652;BME280;66928;52.086;5.240;2023-05-03T06:25:52;102892.0;;;7.52;64.27
50652;BME280;66928;52.086;5.240;2023-05-03T06:29:04;102892.0;;;7.49;63.59
50652;BME280;66928;52.086;5.240;2023-05-03T06:32:17;102884.99999999999;;;7.62;62.83
50652;BME280;66928;52.086;5.240;2023-05-03T06:35:30;102881.0;;;7.72;62.72
50652;BME280;66928;52.086;5.240;2023-05-03T06:37:06;102881.0;;;7.94;62.34
50652;BME280;66928;52.086;5.240;2023-05-03T06:38:42;102879.0;;;7.88;61.56
50652;BME280;66928;52.086;5.240;2023-05-03T06:40:18;102884.99999999999;;;7.91;61.4
50652;BME280;66928;52.086;5.240;2023-05-03T06:43:30;102878.0;;;8.01;60.87
50652;BME280;66928;52.086;5.240;2023-05-03T06:45:07;102881.0;;;8.06;60.64
50652;BME280;66928;52.086;5.240;2023-05-03T06:46:43;102880.0;;;8.09;60.22
50652;BME280;66928;52.086;5.240;2023-05-03T06:49:58;102876.0;;;8.14;60.06
50652;BME280;66928;52.086;5.240;2023-05-03T06:51:34;102878.0;;;8.13;59.93
50652;BME280;66928;52.086;5.240;2023-05-03T06:53:10;102880.0;;;8.25;59.41
50652;BME280;66928;52.086;5.240;2023-05-03T06:56:22;102881.0;;;8.23;59.54
50652;BME280;66928;52.086;5.240;2023-05-03T06:57:59;102873.0;;;8.24;59.12
50652;BME280;66928;52.086;5.240;2023-05-03T06:59:35;102873.0;;;8.38;58.62
50652;BME280;66928;52.086;5.240;2023-05-03T07:01:11;102875.0;;;8.4;58.23
50652;BME280;66928;52.086;5.240;2023-05-03T07:04:23;102872.0;;;8.45;58.46
50652;BME280;66928;52.086;5.240;2023-05-03T07:05:59;102871.0;;;8.65;57.65
50652;BME280;66928;52.086;5.240;2023-05-03T07:07:36;102867.0;;;8.9;58.01
50652;BME280;66928;52.086;5.240;2023-05-03T07:10:48;102856.0;;;8.98;57.1
50652;BME280;66928;52.086;5.240;2023-05-03T07:12:24;102856.0;;;9.05;56.92
50652;BME280;66928;52.086;5.240;2023-05-03T07:14:00;102868.0;;;8.97;56.5
50652;BME280;66928;52.086;5.240;2023-05-03T07:17:12;102867.0;;;9.05;56.2
50652;BME280;66928;52.086;5.240;2023-05-03T07:18:48;102863.00000000001;;;9.02;56.27
50652;BME280;66928;52.086;5.240;2023-05-03T07:20:25;102858.0;;;9.15;55.89
50652;BME280;66928;52.086;5.240;2023-05-03T07:23:37;102854.0;;;9.32;55.85
50652;BME280;66928;52.086;5.240;2023-05-03T07:25:13;102851.0;;;9.3;55.25
50652;BME280;66928;52.086;5.240;2023-05-03T07:26:49;102853.0;;;9.39;54.91
50652;BME280;66928;52.086;5.240;2023-05-03T07:28:25;102855.0;;;9.26;55.08
50652;BME280;66928;52.086;5.240;2023-05-03T07:31:38;102844.0;;;9.06;55.66
50652;BME280;66928;52.086;5.240;2023-05-03T07:33:14;102839.00000000001;;;9.09;55.88
50652;BME280;66928;52.086;5.240;2023-05-03T07:34:50;102833.99999999999;;;9.36;56.16
50652;BME280;66928;52.086;5.240;2023-05-03T07:38:04;102840.00000000001;;;9.5;55.21
50652;BME280;66928;52.086;5.240;2023-05-03T07:39:40;102833.99999999999;;;9.59;55.1
50652;BME280;66928;52.086;5.240;2023-05-03T07:41:17;102834.99999999999;;;9.51;54.53
50652;BME280;66928;52.086;5.240;2023-05-03T07:44:29;102822.0;;;9.53;53.94
50652;BME280;66928;52.086;5.240;2023-05-03T07:46:05;102826.0;;;9.33;53.78
50652;BME280;66928;52.086;5.240;2023-05-03T07:47:40;102827.0;;;9.39;54.1
50652;BME280;66928;52.086;5.240;2023-05-03T07:50:52;102821.0;;;9.21;53.95
50652;BME280;66928;52.086;5.240;2023-05-03T07:52:29;102823.0;;;9.24;55.05
50652;BME280;66928;52.086;5.240;2023-05-03T07:54:05;102824.0;;;9.4;55.15
50652;BME280;66928;52.086;5.240;2023-05-03T07:55:41;102819.0;;;9.59;54.65
50652;BME280;66928;52.086;5.240;2023-05-03T07:58:53;102821.0;;;9.56;54.2
50652;BME280;66928;52.086;5.240;2023-05-03T08:00:29;102819.0;;;9.71;52.93
50652;BME280;66928;52.086;5.240;2023-05-03T08:02:06;102823.0;;;9.69;53.16
50652;BME280;66928;52.086;5.240;2023-05-03T08:05:19;102821.0;;;9.81;53.58
50652;BME280;66928;52.086;5.240;2023-05-03T08:06:55;102814.00000000001;;;9.75;53.06
50652;BME280;66928;52.086;5.240;2023-05-03T08:08:31;102809.99999999999;;;9.91;53.0
50652;BME280;66928;52.086;5.240;2023-05-03T08:11:44;102813.00000000001;;;10.1;53.48
50652;BME280;66928;52.086;5.240;2023-05-03T08:13:20;102813.00000000001;;;9.96;52.69
50652;BME280;66928;52.086;5.240;2023-05-03T08:14:56;102819.0;;;9.91;52.86
50652;BME280;66928;52.086;5.240;2023-05-03T08:16:32;102816.00000000001;;;9.96;53.6
50652;BME280;66928;52.086;5.240;2023-05-03T08:19:45;102817.0;;;10.21;53.81
50652;BME280;66928;52.086;5.240;2023-05-03T08:21:21;102807.0;;;10.39;53.66
50652;BME280;66928;52.086;5.240;2023-05-03T08:22:57;102808.0;;;10.41;52.97
50652;BME280;66928;52.086;5.240;2023-05-03T08:26:09;102794.0;;;10.5;52.92
50652;BME280;66928;52.086;5.240;2023-05-03T08:27:45;102788.00000000001;;;10.45;51.88
50652;BME280;66928;52.086;5.240;2023-05-03T08:29:22;102780.0;;;10.42;52.0
50652;BME280;66928;52.086;5.240;2023-05-03T08:32:36;102784.99999999999;;;10.37;52.86
50652;BME280;66928;52.086;5.240;2023-05-03T08:34:12;102784.99999999999;;;10.57;52.99
50652;BME280;66928;52.086;5.240;2023-05-03T08:35:48;102783.99999999999;;;10.74;52.71
50652;BME280;66928;52.086;5.240;2023-05-03T08:39:01;102793.0;;;10.76;51.92
50652;BME280;66928;52.086;5.240;2023-05-03T08:40:38;102792.0;;;10.65;51.81
50652;BME280;66928;52.086;5.240;2023-05-03T08:42:14;102802.0;;;10.61;52.3
50652;BME280;66928;52.086;5.240;2023-05-03T08:43:52;102803.0;;;10.71;52.01
50652;BME280;66928;52.086;5.240;2023-05-03T08:47:08;102806.0;;;10.8;51.95
50652;BME280;66928;52.086;5.240;2023-05-03T08:48:46;102804.0;;;11.02;51.98
50652;BME280;66928;52.086;5.240;2023-05-03T08:50:23;102797.0;;;10.81;51.33
50652;BME280;66928;52.086;5.240;2023-05-03T08:53:40;102804.0;;;10.85;51.87
50652;BME280;66928;52.086;5.240;2023-05-03T08:55:16;102804.0;;;10.94;51.92
50652;BME280;66928;52.086;5.240;2023-05-03T08:56:52;102797.0;;;11.1;51.32
50652;BME280;66928;52.086;5.240;2023-05-03T08:58:28;102802.0;;;11.1;50.94
50652;BME280;66928;52.086;5.240;2023-05-03T09:01:43;102803.0;;;11.21;50.95
50652;BME280;66928;52.086;5.240;2023-05-03T09:03:19;102800.0;;;11.41;51.06
50652;BME280;66928;52.086;5.240;2023-05-03T09:04:55;102801.0;;;11.32;49.85
50652;BME280;66928;52.086;5.240;2023-05-03T09:08:11;102799.0;;;11.51;50.49
50652;BME280;66928;52.086;5.240;2023-05-03T09:09:47;102805.0;;;11.55;49.45
50652;BME280;66928;52.086;5.240;2023-05-03T09:11:24;102801.0;;;11.56;48.82
50652;BME280;66928;52.086;5.240;2023-05-03T09:13:04;102803.0;;;11.61;47.71
50652;BME280;66928;52.086;5.240;2023-05-03T09:16:22;102809.99999999999;;;11.69;48.02
50652;BME280;66928;52.086;5.240;2023-05-03T09:18:07;102811.99999999999;;;11.87;48.54
50652;BME280;66928;52.086;5.240;2023-05-03T09:19:50;102805.0;;;11.71;47.95
50652;BME280;66928;52.086;5.240;2023-05-03T09:21:28;102804.0;;;11.49;48.18
50652;BME280;66928;52.086;5.240;2023-05-03T09:24:50;102808.0;;;11.78;48.68
50652;BME280;66928;52.086;5.240;2023-05-03T09:26:27;102808.0;;;12.14;48.82
50652;BME280;66928;52.086;5.240;2023-05-03T09:28:04;102808.0;;;12.21;48.41
50652;BME280;66928;52.086;5.240;2023-05-03T09:31:16;102805.0;;;12.12;47.85
50652;BME280;66928;52.086;5.240;2023-05-03T09:32:52;102809.99999999999;;;12.07;47.05
50652;BME280;66928;52.086;5.240;2023-05-03T09:34:29;102815.00000000001;;;11.97;46.97
50652;BME280;66928;52.086;5.240;2023-05-03T09:36:06;102813.00000000001;;;11.83;47.3
50652;BME280;66928;52.086;5.240;2023-05-03T09:39:18;102813.00000000001;;;11.81;47.45
50652;BME280;66928;52.086;5.240;2023-05-03T09:40:54;102814.00000000001;;;11.73;47.39
50652;BME280;66928;52.086;5.240;2023-05-03T09:42:30;102815.00000000001;;;11.71;47.24
50652;BME280;66928;52.086;5.240;2023-05-03T09:45:43;102808.99999999999;;;11.65;47.49
50652;BME280;66928;52.086;5.240;2023-05-03T09:47:19;102806.0;;;11.89;47.78
50652;BME280;66928;52.086;5.240;2023-05-03T09:48:56;102814.00000000001;;;11.79;45.8
50652;BME280;66928;52.086;5.240;2023-05-03T09:52:10;102809.99999999999;;;11.85;46.51
50652;BME280;66928;52.086;5.240;2023-05-03T09:53:47;102802.0;;;11.87;47.52
50652;BME280;66928;52.086;5.240;2023-05-03T09:55:24;102806.0;;;11.88;47.25
50652;BME280;66928;52.086;5.240;2023-05-03T09:57:02;102808.0;;;11.83;46.74
50652;BME280;66928;52.086;5.240;2023-05-03T10:00:16;102800.0;;;11.78;46.31
50652;BME280;66928;52.086;5.240;2023-05-03T10:01:55;102805.0;;;11.91;45.97
50652;BME280;66928;52.086;5.240;2023-05-03T10:03:39;102808.0;;;11.7;46.14
50652;BME280;66928;52.086;5.240;2023-05-03T10:06:58;102804.0;;;11.78;46.04
50652;BME280;66928;52.086;5.240;2023-05-03T10:08:40;102795.0;;;11.81;45.64
50652;BME280;66928;52.086;5.240;2023-05-03T10:10:16;102792.0;;;11.9;45.39
50652;BME280;66928;52.086;5.240;2023-05-03T10:11:53;102790.00000000001;;;12.01;45.14
50652;BME280;66928;52.086;5.240;2023-05-03T10:15:12;102792.0;;;12.05;45.17
50652;BME280;66928;52.086;5.240;2023-05-03T10:16:52;102789.00000000001;;;12.19;45.56
50652;BME280;66928;52.086;5.240;2023-05-03T10:18:39;102791.00000000001;;;12.22;45.71
50652;BME280;66928;52.086;5.240;2023-05-03T10:20:25;102795.0;;;12.35;45.86
50652;BME280;66928;52.086;5.240;2023-05-03T10:22:04;102786.99999999999;;;12.45;45.68
50652;BME280;66928;52.086;5.240;2023-05-03T10:26:16;102788.00000000001;;;12.4;44.86
50652;BME280;66928;52.086;5.240;2023-05-03T10:28:00;102780.0;;;12.72;45.14
50652;BME280;66928;52.086;5.240;2023-05-03T10:29:46;102773.0;;;12.76;44.46
50652;BME280;66928;52.086;5.240;2023-05-03T10:31:57;102777.0;;;12.58;44.5
50652;BME280;66928;52.086;5.240;2023-05-03T10:33:33;102784.99999999999;;;12.45;43.92
50652;BME280;66928;52.086;5.240;2023-05-03T10:35:12;102781.0;;;12.69;43.82
50652;BME280;66928;52.086;5.240;2023-05-03T10:36:50;102777.0;;;12.91;43.38
50652;BME280;66928;52.086;5.240;2023-05-03T10:40:06;102778.0;;;12.95;44.81
50652;BME280;66928;52.086;5.240;2023-05-03T10:41:43;102774.0;;;13.1;44.47
50652;BME280;66928;52.086;5.240;2023-05-03T10:43:52;102776.0;;;13.0;43.78
50652;BME280;66928;52.086;5.240;2023-05-03T10:45:28;102771.0;;;13.0;43.78
50652;BME280;66928;52.086;5.240;2023-05-03T10:49:13;102772.0;;;13.08;44.03
50652;BME280;66928;52.086;5.240;2023-05-03T10:50:50;102771.0;;;13.04;44.36
50652;BME280;66928;52.086;5.240;2023-05-03T10:52:59;102767.0;;;13.08;43.49
50652;BME280;66928;52.086;5.240;2023-05-03T10:54:34;102770.0;;;13.07;43.68
50652;BME280;66928;52.086;5.240;2023-05-03T10:56:11;102767.0;;;13.14;43.47
50652;BME280;66928;52.086;5.240;2023-05-03T10:57:52;102758.99999999999;;;13.55;46.07
50652;BME280;66928;52.086;5.240;2023-05-03T11:01:23;102763.00000000001;;;13.83;43.75
50652;BME280;66928;52.086;5.240;2023-05-03T11:03:09;102759.99999999999;;;13.84;42.29
50652;BME280;66928;52.086;5.240;2023-05-03T11:05:19;102761.99999999999;;;13.58;42.59
50652;BME280;66928;52.086;5.240;2023-05-03T11:06:56;102759.99999999999;;;13.44;40.49
50652;BME280;66928;52.086;5.240;2023-05-03T11:08:32;102754.0;;;13.4;41.19
50652;BME280;66928;52.086;5.240;2023-05-03T11:10:16;102749.0;;;13.42;41.35
50652;BME280;66928;52.086;5.240;2023-05-03T11:13:29;102744.0;;;13.55;42.64
50652;BME280;66928;52.086;5.240;2023-05-03T11:15:06;102745.0;;;13.59;41.65
50652;BME280;66928;52.086;5.240;2023-05-03T11:16:43;102736.99999999999;;;13.85;41.64
50652;BME280;66928;52.086;5.240;2023-05-03T11:19:57;102731.0;;;14.07;41.3
50652;BME280;66928;52.086;5.240;2023-05-03T11:21:33;102729.0;;;13.82;41.14
50652;BME280;66928;52.086;5.240;2023-05-03T11:23:10;102728.0;;;13.66;41.19
50652;BME280;66928;52.086;5.240;2023-05-03T11:24:47;102730.0;;;13.61;40.81
50652;BME280;66928;52.086;5.240;2023-05-03T11:27:59;102728.0;;;13.5;40.81
50652;BME280;66928;52.086;5.240;2023-05-03T11:29:35;102721.0;;;13.7;40.78
50652;BME280;66928;52.086;5.240;2023-05-03T11:31:12;102730.0;;;13.55;40.04
50652;BME280;66928;52.086;5.240;2023-05-03T11:34:25;102721.0;;;13.55;41.0
50652;BME280;66928;52.086;5.240;2023-05-03T11:36:01;102720.0;;;13.78;41.61
50652;BME280;66928;52.086;5.240;2023-05-03T11:40:51;102717.0;;;13.96;41.09
50652;BME280;66928;52.086;5.240;2023-05-03T11:42:27;102717.0;;;13.79;41.59
50652;BME280;66928;52.086;5.240;2023-05-03T11:44:03;102720.0;;;13.98;40.89
50652;BME280;66928;52.086;5.240;2023-05-03T11:47:20;102721.0;;;13.96;40.67
50652;BME280;66928;52.086;5.240;2023-05-03T11:48:57;102709.99999999999;;;13.99;41.12
50652;BME280;66928;52.086;5.240;2023-05-03T11:50:49;102703.0;;;14.0;41.3
50652;BME280;66928;52.086;5.240;2023-05-03T11:52:27;102708.99999999999;;;13.87;41.32
50652;BME280;66928;52.086;5.240;2023-05-03T11:54:04;102709.99999999999;;;14.05;41.43
50652;BME280;66928;52.086;5.240;2023-05-03T11:57:18;102705.0;;;14.01;40.31
50652;BME280;66928;52.086;5.240;2023-05-03T11:58:56;102706.0;;;13.99;40.35
50652;BME280;66928;52.086;5.240;2023-05-03T12:00:33;102708.0;;;13.86;40.03
50652;BME280;66928;52.086;5.240;2023-05-03T12:03:52;102698.0;;;13.99;40.46
50652;BME280;66928;52.086;5.240;2023-05-03T12:05:28;102701.0;;;14.12;40.85
50652;BME280;66928;52.086;5.240;2023-05-03T12:07:04;102690.00000000001;;;14.31;40.85
50652;BME280;66928;52.086;5.240;2023-05-03T12:10:17;102688.00000000001;;;14.16;40.53
50652;BME280;66928;52.086;5.240;2023-05-03T12:11:54;102682.0;;;14.3;40.06
50652;BME280;66928;52.086;5.240;2023-05-03T12:13:32;102673.0;;;14.37;39.82
50652;BME280;66928;52.086;5.240;2023-05-03T12:15:11;102669.0;;;14.5;40.25
50652;BME280;66928;52.086;5.240;2023-05-03T12:18:26;102672.0;;;14.42;40.24
50652;BME280;66928;52.086;5.240;2023-05-03T12:20:20;102669.0;;;14.32;40.4
50652;BME280;66928;52.086;5.240;2023-05-03T12:21:56;102658.99999999999;;;14.32;40.24
50652;BME280;66928;52.086;5.240;2023-05-03T12:23:32;102654.0;;;14.58;40.58
50652;BME280;66928;52.086;5.240;2023-05-03T12:26:46;102665.00000000001;;;14.36;40.17
50652;BME280;66928;52.086;5.240;2023-05-03T12:28:22;102668.0;;;14.41;40.1
50652;BME280;66928;52.086;5.240;2023-05-03T12:29:58;102658.99999999999;;;14.54;39.49
50652;BME280;66928;52.086;5.240;2023-05-03T12:33:10;102656.0;;;14.58;38.83
50652;BME280;66928;52.086;5.240;2023-05-03T12:34:47;102658.0;;;14.35;39.42
50652;BME280;66928;52.086;5.240;2023-05-03T12:36:23;102649.0;;;14.29;40.04
50652;BME280;66928;52.086;5.240;2023-05-03T12:38:01;102646.0;;;14.27;40.07
50652;BME280;66928;52.086;5.240;2023-05-03T12:41:13;102633.0;;;14.32;40.22
50652;BME280;66928;52.086;5.240;2023-05-03T12:42:49;102632.0;;;14.44;40.53
50652;BME280;66928;52.086;5.240;2023-05-03T12:44:25;102642.0;;;14.29;39.75
50652;BME280;66928;52.086;5.240;2023-05-03T12:47:37;102632.0;;;14.2;39.81
50652;BME280;66928;52.086;5.240;2023-05-03T12:49:13;102630.0;;;14.42;40.07
50652;BME280;66928;52.086;5.240;2023-05-03T12:50:50;102630.0;;;14.41;39.76
50652;BME280;66928;52.086;5.240;2023-05-03T12:54:02;102626.0;;;14.61;39.72
50652;BME280;66928;52.086;5.240;2023-05-03T12:55:38;102629.0;;;14.78;39.58
50652;BME280;66928;52.086;5.240;2023-05-03T12:57:15;102615.00000000001;;;14.88;39.94
50652;BME280;66928;52.086;5.240;2023-05-03T13:00:26;102611.99999999999;;;14.73;39.56
50652;BME280;66928;52.086;5.240;2023-05-03T13:02:03;102617.0;;;14.75;38.86
50652;BME280;66928;52.086;5.240;2023-05-03T13:03:38;102608.99999999999;;;14.79;38.82
50652;BME280;66928;52.086;5.240;2023-05-03T13:05:15;102613.00000000001;;;14.92;38.6
50652;BME280;66928;52.086;5.240;2023-05-03T13:08:29;102609.99999999999;;;14.98;38.42
50652;BME280;66928;52.086;5.240;2023-05-03T13:10:06;102600.0;;;14.91;38.39
50652;BME280;66928;52.086;5.240;2023-05-03T13:11:42;102594.0;;;14.85;37.89
50652;BME280;66928;52.086;5.240;2023-05-03T13:14:54;102600.0;;;14.87;38.14
50652;BME280;66928;52.086;5.240;2023-05-03T13:16:31;102598.0;;;14.98;38.1
50652;BME280;66928;52.086;5.240;2023-05-03T13:18:07;102595.0;;;15.01;38.31
50652;BME280;66928;52.086;5.240;2023-05-03T13:21:19;102592.0;;;15.11;38.14
50652;BME280;66928;52.086;5.240;2023-05-03T13:22:56;102586.99999999999;;;15.18;37.83
50652;BME280;66928;52.086;5.240;2023-05-03T13:24:34;102583.0;;;15.26;37.99
50652;BME280;66928;52.086;5.240;2023-05-03T13:26:10;102581.0;;;15.11;38.4
50652;BME280;66928;52.086;5.240;2023-05-03T13:29:22;102575.0;;;15.18;38.21
50652;BME280;66928;52.086;5.240;2023-05-03T13:30:59;102576.0;;;15.18;38.28
50652;BME280;66928;52.086;5.240;2023-05-03T13:32:35;102570.0;;;15.13;38.58
50652;BME280;66928;52.086;5.240;2023-05-03T13:35:48;102571.0;;;15.31;38.81
50652;BME280;66928;52.086;5.240;2023-05-03T13:37:24;102570.0;;;15.4;38.26
50652;BME280;66928;52.086;5.240;2023-05-03T13:39:00;102566.00000000001;;;15.38;38.64
50652;BME280;66928;52.086;5.240;2023-05-03T13:42:13;102559.99999999999;;;15.3;38.36
50652;BME280;66928;52.086;5.240;2023-05-03T13:43:49;102565.00000000001;;;15.31;38.25
50652;BME280;66928;52.086;5.240;2023-05-03T13:45:25;102565.00000000001;;;15.19;37.89
50652;BME280;66928;52.086;5.240;2023-05-03T13:47:01;102551.0;;;15.46;37.87
50652;BME280;66928;52.086;5.240;2023-05-03T13:50:14;102548.0;;;15.53;37.78
50652;BME280;66928;52.086;5.240;2023-05-03T13:51:51;102542.0;;;15.72;37.64
50652;BME280;66928;52.086;5.240;2023-05-03T13:53:26;102542.0;;;15.79;37.21
50652;BME280;66928;52.086;5.240;2023-05-03T13:56:40;102536.99999999999;;;15.71;37.31
50652;BME280;66928;52.086;5.240;2023-05-03T13:58:16;102530.0;;;15.59;37.22
50652;BME280;66928;52.086;5.240;2023-05-03T13:59:52;102530.0;;;15.7;37.07
50652;BME280;66928;52.086;5.240;2023-05-03T14:03:06;102541.00000000001;;;15.77;37.11
50652;BME280;66928;52.086;5.240;2023-05-03T14:04:41;102541.00000000001;;;15.81;36.86
50652;BME280;66928;52.086;5.240;2023-05-03T14:06:19;102527.0;;;15.62;37.14
50652;BME280;66928;52.086;5.240;2023-05-03T14:07:56;102527.0;;;15.65;37.72
50652;BME280;66928;52.086;5.240;2023-05-03T14:11:11;102529.0;;;15.71;37.32
50652;BME280;66928;52.086;5.240;2023-05-03T14:12:47;102517.0;;;15.78;37.46
50652;BME280;66928;52.086;5.240;2023-05-03T14:14:25;102516.00000000001;;;15.87;37.46
50652;BME280;66928;52.086;5.240;2023-05-03T14:17:38;102505.0;;;15.87;37.4
50652;BME280;66928;52.086;5.240;2023-05-03T14:19:14;102507.0;;;15.93;37.62
50652;BME280;66928;52.086;5.240;2023-05-03T14:20:50;102511.99999999999;;;16.07;37.72
50652;BME280;66928;52.086;5.240;2023-05-03T14:24:02;102501.0;;;16.02;37.89
50652;BME280;66928;52.086;5.240;2023-05-03T14:25:39;102505.0;;;16.09;37.76
50652;BME280;66928;52.086;5.240;2023-05-03T14:27:15;102505.0;;;15.92;37.24
50652;BME280;66928;52.086;5.240;2023-05-03T14:28:51;102497.0;;;15.97;37.46
50652;BME280;66928;52.086;5.240;2023-05-03T14:32:05;102493.0;;;15.95;37.43
50652;BME280;66928;52.086;5.240;2023-05-03T14:33:41;102491.00000000001;;;16.07;37.17
50652;BME280;66928;52.086;5.240;2023-05-03T14:35:17;102498.0;;;16.03;36.92
50652;BME280;66928;52.086;5.240;2023-05-03T14:38:29;102492.0;;;16.13;37.42
50652;BME280;66928;52.086;5.240;2023-05-03T14:40:06;102491.00000000001;;;16.06;37.24
50652;BME280;66928;52.086;5.240;2023-05-03T14:41:43;102496.0;;;16.06;37.5
50652;BME280;66928;52.086;5.240;2023-05-03T14:44:57;102490.00000000001;;;15.92;36.99
50652;BME280;66928;52.086;5.240;2023-05-03T14:46:33;102489.00000000001;;;15.95;36.76
50652;BME280;66928;52.086;5.240;2023-05-03T14:48:09;102482.0;;;15.87;37.07
50652;BME280;66928;52.086;5.240;2023-05-03T14:51:22;102475.0;;;15.98;36.53
50652;BME280;66928;52.086;5.240;2023-05-03T14:52:59;102479.0;;;16.02;36.35
50652;BME280;66928;52.086;5.240;2023-05-03T14:54:36;102468.0;;;16.04;36.82
50652;BME280;66928;52.086;5.240;2023-05-03T14:56:12;102463.00000000001;;;16.11;36.64
50652;BME280;66928;52.086;5.240;2023-05-03T14:59:24;102456.0;;;16.04;37.33
50652;BME280;66928;52.086;5.240;2023-05-03T15:01:00;102454.0;;;16.11;37.67
50652;BME280;66928;52.086;5.240;2023-05-03T15:02:37;102459.99999999999;;;15.93;37.31
50652;BME280;66928;52.086;5.240;2023-05-03T15:05:49;102458.0;;;16.09;37.22
50652;BME280;66928;52.086;5.240;2023-05-03T15:07:25;102459.99999999999;;;16.02;37.29
50652;BME280;66928;52.086;5.240;2023-05-03T15:09:01;102454.0;;;16.12;36.78
50652;BME280;66928;52.086;5.240;2023-05-03T15:12:13;102448.0;;;16.05;36.93
50652;BME280;66928;52.086;5.240;2023-05-03T15:13:50;102452.0;;;16.0;37.11
50652;BME280;66928;52.086;5.240;2023-05-03T15:15:26;102450.0;;;16.13;36.85
50652;BME280;66928;52.086;5.240;2023-05-03T15:17:03;102451.0;;;16.2;36.64
50652;BME280;66928;52.086;5.240;2023-05-03T15:20:15;102444.0;;;16.25;36.51
50652;BME280;66928;52.086;5.240;2023-05-03T15:21:51;102443.0;;;16.13;36.85
50652;BME280;66928;52.086;5.240;2023-05-03T15:23:27;102438.00000000001;;;16.18;36.97
50652;BME280;66928;52.086;5.240;2023-05-03T15:26:40;102436.99999999999;;;16.11;37.15
50652;BME280;66928;52.086;5.240;2023-05-03T15:28:16;102439.00000000001;;;16.21;36.78
50652;BME280;66928;52.086;5.240;2023-05-03T15:29:52;102432.0;;;16.05;36.51
50652;BME280;66928;52.086;5.240;2023-05-03T15:33:05;102442.0;;;16.3;36.54
50652;BME280;66928;52.086;5.240;2023-05-03T15:34:41;102442.0;;;16.28;36.92
50652;BME280;66928;52.086;5.240;2023-05-03T15:36:17;102442.0;;;16.12;36.6
50652;BME280;66928;52.086;5.240;2023-05-03T15:37:53;102433.99999999999;;;15.99;36.68
50652;BME280;66928;52.086;5.240;2023-05-03T15:41:06;102433.99999999999;;;16.02;36.31
50652;BME280;66928;52.086;5.240;2023-05-03T15:42:41;102433.99999999999;;;16.11;36.56
50652;BME280;66928;52.086;5.240;2023-05-03T15:44:18;102434.99999999999;;;16.05;36.82
50652;BME280;66928;52.086;5.240;2023-05-03T15:47:30;102434.99999999999;;;16.2;36.96
50652;BME280;66928;52.086;5.240;2023-05-03T15:49:06;102429.0;;;16.25;36.68
50652;BME280;66928;52.086;5.240;2023-05-03T15:50:42;102431.0;;;16.36;36.96
50652;BME280;66928;52.086;5.240;2023-05-03T15:53:55;102428.0;;;16.18;36.61
50652;BME280;66928;52.086;5.240;2023-05-03T15:55:32;102432.0;;;16.15;36.96
50652;BME280;66928;52.086;5.240;2023-05-03T15:57:08;102431.0;;;16.39;36.61
50652;BME280;66928;52.086;5.240;2023-05-03T16:00:20;102429.0;;;16.36;36.21
50652;BME280;66928;52.086;5.240;2023-05-03T16:01:56;102421.0;;;16.46;36.62
50652;BME280;66928;52.086;5.240;2023-05-03T16:03:32;102426.0;;;16.46;36.57
50652;BME280;66928;52.086;5.240;2023-05-03T16:05:09;102424.0;;;16.36;36.86
50652;BME280;66928;52.086;5.240;2023-05-03T16:08:22;102422.0;;;16.23;36.78
50652;BME280;66928;52.086;5.240;2023-05-03T16:09:58;102422.0;;;16.23;37.06